createdAt,value
2022-09-26T00:00:31.587Z,98614.81
2022-09-26T00:01:39.134Z,98614.50
2022-09-26T00:02:43.196Z,98621.34
2022-09-26T00:03:58.855Z,98624.84
2022-09-26T00:05:02.523Z,98610.16
2022-09-26T00:06:08.894Z,98618.13
2022-09-26T00:07:12.460Z,98624.16
2022-09-26T00:08:16.165Z,98614.63
2022-09-26T00:09:21.014Z,98619.09
2022-09-26T00:10:24.560Z,98618.00
2022-09-26T00:11:33.003Z,98618.97
2022-09-26T00:12:36.570Z,98614.75
2022-09-26T00:13:42.447Z,98614.88
2022-09-26T00:14:46.297Z,98609.00
2022-09-26T00:15:49.848Z,98615.56
2022-09-26T00:16:54.946Z,98622.63
2022-09-26T00:17:58.656Z,98609.69
2022-09-26T00:19:03.162Z,98618.25
2022-09-26T00:20:07.417Z,98614.03
2022-09-26T00:21:14.462Z,98612.91
2022-09-26T00:22:18.056Z,98608.56
2022-09-26T00:23:21.714Z,98609.31
2022-09-26T00:24:25.528Z,98604.00
2022-09-26T00:25:29.211Z,98608.44
2022-09-26T00:26:35.732Z,98610.16
2022-09-26T00:27:39.523Z,98597.69
2022-09-26T00:28:43.289Z,98601.56
2022-09-26T00:29:47.152Z,98597.53
2022-09-26T00:30:50.839Z,98603.72
2022-09-26T00:31:54.435Z,98604.41
2022-09-26T00:32:58.108Z,98599.09
2022-09-26T00:34:02.473Z,98604.28
2022-09-26T00:35:06.887Z,98591.09
2022-09-26T00:36:10.898Z,98589.28
2022-09-26T00:37:14.597Z,98586.63
2022-09-26T00:38:19.526Z,98591.84
2022-09-26T00:39:23.243Z,98589.03
2022-09-26T00:40:28.190Z,98590.84
2022-09-26T00:41:31.933Z,98582.97
2022-09-26T00:42:35.601Z,98582.16
2022-09-26T00:43:43.335Z,98579.63
2022-09-26T00:44:54.770Z,98583.13
2022-09-26T00:46:24.790Z,98581.44
2022-09-26T00:47:45.123Z,98581.72
2022-09-26T00:49:24.051Z,98579.91
2022-09-26T00:50:37.928Z,98582.94
2022-09-26T00:51:47.671Z,98585.47
2022-09-26T00:53:03.542Z,98584.91
2022-09-26T00:54:12.691Z,98580.44
2022-09-26T00:55:21.439Z,98583.22
2022-09-26T00:56:36.183Z,98576.31
2022-09-26T00:57:49.875Z,98572.69
2022-09-26T00:59:17.333Z,98579.00
2022-09-26T01:00:21.533Z,98575.25
2022-09-26T01:01:25.542Z,98575.34
2022-09-26T01:02:29.977Z,98576.47
2022-09-26T01:03:35.844Z,98579.00
2022-09-26T01:04:42.559Z,98574.50
2022-09-26T01:05:47.200Z,98574.50
2022-09-26T01:06:51.007Z,98577.44
2022-09-26T01:07:57.460Z,98580.81
2022-09-26T01:09:09.166Z,98577.59
2022-09-26T01:10:13.300Z,98582.63
2022-09-26T01:11:17.444Z,98585.16
2022-09-26T01:12:23.349Z,98581.78
2022-09-26T01:13:28.938Z,98579.84
2022-09-26T01:14:34.715Z,98570.16
2022-09-26T01:15:39.278Z,98564.97
2022-09-26T01:16:49.560Z,98568.34
2022-09-26T01:17:53.500Z,98568.09
2022-09-26T01:18:57.157Z,98570.63
2022-09-26T01:20:40.387Z,98573.97
2022-09-26T01:22:14.974Z,98571.31
2022-09-26T01:23:56.866Z,98573.75
2022-09-26T01:25:28.800Z,98567.56
2022-09-26T01:27:04.677Z,98557.03
2022-09-26T01:29:06.076Z,98568.13
2022-09-26T01:30:19.127Z,98565.47
2022-09-26T01:32:11.562Z,98568.13
2022-09-26T01:33:36.383Z,98560.28
2022-09-26T01:37:31.881Z,98558.66
2022-09-26T01:39:10.218Z,98559.34
2022-09-26T01:40:58.117Z,98551.50
2022-09-26T01:42:33.065Z,98550.09
2022-09-26T01:43:57.031Z,98555.00
2022-09-26T01:45:28.236Z,98550.66
2022-09-26T01:46:51.182Z,98539.56
2022-09-26T01:48:21.763Z,98539.84
2022-09-26T01:50:16.381Z,98536.72
2022-09-26T01:51:48.700Z,98544.31
2022-09-26T01:53:06.417Z,98532.66
2022-09-26T01:54:19.169Z,98544.53
2022-09-26T01:55:36.002Z,98543.84
2022-09-26T01:56:42.152Z,98548.47
2022-09-26T01:58:16.189Z,98549.00
2022-09-26T01:59:39.290Z,98531.88
2022-09-26T02:04:04.388Z,98535.78
2022-09-26T02:05:27.807Z,98532.72
2022-09-26T02:07:12.708Z,98534.94
2022-09-26T02:08:38.036Z,98530.75
2022-09-26T02:09:59.425Z,98525.13
2022-09-26T02:11:12.545Z,98536.22
2022-09-26T02:12:32.918Z,98528.06
2022-09-26T02:14:03.876Z,98523.97
2022-09-26T02:15:14.296Z,98517.66
2022-09-26T02:16:41.697Z,98520.22
2022-09-26T02:17:54.911Z,98524.66
2022-09-26T02:19:15.437Z,98520.22
2022-09-26T02:20:31.528Z,98510.78
2022-09-26T02:21:34.984Z,98524.41
2022-09-26T02:22:39.349Z,98523.16
2022-09-26T02:23:43.375Z,98523.16
2022-09-26T02:24:47.020Z,98524.88
2022-09-26T02:25:51.126Z,98510.28
2022-09-26T02:26:55.116Z,98515.91
2022-09-26T02:27:58.979Z,98524.59
2022-09-26T02:29:02.761Z,98520.38
2022-09-26T02:30:07.670Z,98515.91
2022-09-26T02:31:16.743Z,98518.56
2022-09-26T02:32:30.061Z,98510.66
2022-09-26T02:33:34.101Z,98524.88
2022-09-26T02:34:37.679Z,98516.69
2022-09-26T02:35:54.274Z,98528.38
2022-09-26T02:37:01.426Z,98517.28
2022-09-26T02:38:05.941Z,98522.31
2022-09-26T02:39:11.277Z,98512.34
2022-09-26T02:40:14.975Z,98522.72
2022-09-26T02:41:59.779Z,98531.03
2022-09-26T02:44:02.918Z,98530.19
2022-09-26T02:45:36.761Z,98524.88
2022-09-26T02:47:00.053Z,98529.06
2022-09-26T02:48:16.952Z,98520.09
2022-09-26T02:49:36.557Z,98517.31
2022-09-26T02:50:47.961Z,98517.16
2022-09-26T02:52:09.264Z,98521.66
2022-09-26T02:53:57.534Z,98508.34
2022-09-26T02:55:24.657Z,98515.94
2022-09-26T02:56:31.447Z,98509.19
2022-09-26T02:58:03.949Z,98513.97
2022-09-26T02:59:14.625Z,98508.56
2022-09-26T03:00:32.942Z,98506.84
2022-09-26T03:02:04.151Z,98480.06
2022-09-26T03:03:53.180Z,98507.88
2022-09-26T03:05:27.013Z,98501.59
2022-09-26T03:06:39.748Z,98477.59
2022-09-26T03:07:56.733Z,98489.66
2022-09-26T03:09:02.372Z,98500.47
2022-09-26T03:10:11.153Z,98497.81
2022-09-26T03:11:24.058Z,98493.47
2022-09-26T03:12:32.025Z,98473.00
2022-09-26T03:13:39.050Z,98484.50
2022-09-26T03:14:46.021Z,98480.44
2022-09-26T03:15:56.611Z,98487.03
2022-09-26T03:17:03.511Z,98476.50
2022-09-26T03:18:13.269Z,98483.25
2022-09-26T03:19:35.936Z,98482.28
2022-09-26T03:20:40.937Z,98476.81
2022-09-26T03:21:45.402Z,98472.34
2022-09-26T03:22:49.745Z,98456.75
2022-09-26T03:23:53.886Z,98465.06
2022-09-26T03:24:59.778Z,98462.28
2022-09-26T03:26:11.213Z,98453.00
2022-09-26T03:27:17.513Z,98463.22
2022-09-26T03:28:20.931Z,98458.88
2022-09-26T03:29:24.681Z,98459.88
2022-09-26T03:30:29.978Z,98453.00
2022-09-26T03:31:33.663Z,98443.75
2022-09-26T03:32:37.456Z,98436.75
2022-09-26T03:33:41.071Z,98445.88
2022-09-26T03:34:45.290Z,98453.00
2022-09-26T03:35:48.739Z,98442.38
2022-09-26T03:36:52.239Z,98447.69
2022-09-26T03:37:56.289Z,98450.50
2022-09-26T03:38:59.780Z,98446.84
2022-09-26T03:40:09.572Z,98447.94
2022-09-26T03:41:13.444Z,98443.59
2022-09-26T03:42:17.812Z,98451.72
2022-09-26T03:43:24.299Z,98438.13
2022-09-26T03:44:27.846Z,98445.72
2022-09-26T03:45:37.404Z,98415.97
2022-09-26T03:46:40.814Z,98441.22
2022-09-26T03:47:44.454Z,98438.97
2022-09-26T03:48:49.898Z,98439.81
2022-09-26T03:49:54.346Z,98441.59
2022-09-26T03:51:10.756Z,98438.66
2022-09-26T03:52:14.746Z,98450.97
2022-09-26T03:53:18.952Z,98443.13
2022-09-26T03:54:22.761Z,98436.13
2022-09-26T03:55:26.258Z,98447.63
2022-09-26T03:56:29.975Z,98448.47
2022-09-26T03:57:33.470Z,98434.47
2022-09-26T03:58:38.284Z,98444.97
2022-09-26T03:59:41.951Z,98440.34
2022-09-26T04:00:45.443Z,98449.31
2022-09-26T04:01:49.126Z,98451.97
2022-09-26T04:02:53.014Z,98451.25
2022-09-26T04:03:57.955Z,98453.94
2022-09-26T04:05:01.535Z,98457.28
2022-09-26T04:06:11.182Z,98456.59
2022-09-26T04:07:14.993Z,98461.63
2022-09-26T04:08:18.447Z,98469.50
2022-09-26T04:09:22.171Z,98451.66
2022-09-26T04:10:27.581Z,98465.00
2022-09-26T04:11:30.985Z,98465.00
2022-09-26T04:12:35.059Z,98453.94
2022-09-26T04:13:51.492Z,98459.53
2022-09-26T04:14:56.130Z,98437.50
2022-09-26T04:16:03.695Z,98458.84
2022-09-26T04:17:07.201Z,98449.31
2022-09-26T04:18:10.761Z,98443.72
2022-09-26T04:19:15.175Z,98457.44
2022-09-26T04:20:18.695Z,98452.13
2022-09-26T04:21:22.318Z,98449.34
2022-09-26T04:22:26.093Z,98440.09
2022-09-26T04:23:32.230Z,98447.25
2022-09-26T04:24:35.771Z,98419.06
2022-09-26T04:25:39.177Z,98420.03
2022-09-26T04:26:44.571Z,98444.59
2022-09-26T04:27:48.078Z,98435.91
2022-09-26T04:28:55.391Z,98449.09
2022-09-26T04:29:59.141Z,98450.66
2022-09-26T04:31:06.679Z,98451.50
2022-09-26T04:32:10.834Z,98448.97
2022-09-26T04:33:14.517Z,98452.88
2022-09-26T04:34:18.175Z,98449.25
2022-09-26T04:35:21.746Z,98449.13
2022-09-26T04:36:25.260Z,98418.69
2022-09-26T04:37:28.876Z,98455.00
2022-09-26T04:38:35.094Z,98441.84
2022-09-26T04:39:38.923Z,98446.03
2022-09-26T04:40:43.082Z,98445.06
2022-09-26T04:41:46.905Z,98447.72
2022-09-26T04:42:50.575Z,98446.88
2022-09-26T04:43:56.631Z,98440.72
2022-09-26T04:45:00.296Z,98422.06
2022-09-26T04:46:24.554Z,98418.72
2022-09-26T04:47:31.539Z,98434.69
2022-09-26T04:48:36.259Z,98417.44
2022-09-26T04:49:40.086Z,98416.75
2022-09-26T04:50:43.787Z,98421.38
2022-09-26T04:51:47.872Z,98425.31
2022-09-26T04:52:51.843Z,98402.59
2022-09-26T04:53:56.222Z,98399.66
2022-09-26T04:54:59.814Z,98426.72
2022-09-26T04:56:03.775Z,98421.38
2022-09-26T04:57:07.304Z,98381.88
2022-09-26T04:58:11.174Z,98423.94
2022-09-26T04:59:14.738Z,98421.13
2022-09-26T05:00:18.653Z,98418.88
2022-09-26T05:01:23.035Z,98425.63
2022-09-26T05:02:26.690Z,98427.44
2022-09-26T05:03:30.240Z,98424.06
2022-09-26T05:04:34.491Z,98411.31
2022-09-26T05:05:40.099Z,98422.38
2022-09-26T05:06:44.349Z,98425.03
2022-09-26T05:07:47.731Z,98427.69
2022-09-26T05:08:51.291Z,98430.66
2022-09-26T05:09:56.353Z,98414.38
2022-09-26T05:11:01.585Z,98404.00
2022-09-26T05:12:05.343Z,98402.91
2022-09-26T05:13:10.952Z,98376.78
2022-09-26T05:14:16.911Z,98411.03
2022-09-26T05:15:21.679Z,98407.22
2022-09-26T05:16:25.550Z,98398.13
2022-09-26T05:17:29.217Z,98408.38
2022-09-26T05:18:33.730Z,98402.06
2022-09-26T05:19:37.616Z,98409.91
2022-09-26T05:20:48.371Z,98400.50
2022-09-26T05:21:52.110Z,98403.34
2022-09-26T05:22:59.634Z,98402.34
2022-09-26T05:24:21.609Z,98385.25
2022-09-26T05:25:46.905Z,98395.91
2022-09-26T05:26:52.852Z,98385.53
2022-09-26T05:27:56.503Z,98397.31
2022-09-26T05:29:07.741Z,98405.16
2022-09-26T05:30:13.020Z,98395.91
2022-09-26T05:31:17.905Z,98397.72
2022-09-26T05:32:22.305Z,98404.03
2022-09-26T05:33:25.844Z,98403.03
2022-09-26T05:34:29.528Z,98400.53
2022-09-26T05:35:36.291Z,98406.28
2022-09-26T05:36:43.881Z,98407.97
2022-09-26T05:37:47.876Z,98412.16
2022-09-26T05:38:52.462Z,98410.34
2022-09-26T05:40:15.202Z,98418.22
2022-09-26T05:41:20.100Z,98382.59
2022-09-26T05:42:24.377Z,98415.41
2022-09-26T05:43:31.169Z,98414.41
2022-09-26T05:44:34.954Z,98409.94
2022-09-26T05:45:39.417Z,98416.09
2022-09-26T05:46:44.091Z,98415.09
2022-09-26T05:47:48.809Z,98415.94
2022-09-26T05:48:52.900Z,98413.13
2022-09-26T05:50:00.267Z,98413.28
2022-09-26T05:51:12.772Z,98416.38
2022-09-26T05:52:16.668Z,98420.88
2022-09-26T05:53:20.289Z,98418.34
2022-09-26T05:54:24.321Z,98411.19
2022-09-26T05:55:30.143Z,98409.63
2022-09-26T05:56:37.493Z,98406.13
2022-09-26T05:57:50.533Z,98415.09
2022-09-26T05:58:55.213Z,98413.28
2022-09-26T05:59:58.595Z,98411.47
2022-09-26T06:01:11.318Z,98410.47
2022-09-26T06:02:18.555Z,98411.19
2022-09-26T06:03:24.289Z,98409.91
2022-09-26T06:04:29.455Z,98404.19
2022-09-26T06:05:36.761Z,98387.22
2022-09-26T06:06:40.438Z,98415.53
2022-09-26T06:07:46.158Z,98408.53
2022-09-26T06:08:50.435Z,98408.94
2022-09-26T06:09:54.399Z,98411.31
2022-09-26T06:11:04.330Z,98407.56
2022-09-26T06:12:09.033Z,98404.75
2022-09-26T06:13:15.538Z,98411.59
2022-09-26T06:14:19.180Z,98410.75
2022-09-26T06:15:24.942Z,98408.78
2022-09-26T06:16:29.657Z,98397.72
2022-09-26T06:17:33.312Z,98411.03
2022-09-26T06:18:38.714Z,98403.72
2022-09-26T06:19:42.355Z,98404.56
2022-09-26T06:20:45.889Z,98404.34
2022-09-26T06:21:49.473Z,98362.25
2022-09-26T06:22:55.258Z,98399.25
2022-09-26T06:23:59.053Z,98378.50
2022-09-26T06:25:02.491Z,98389.41
2022-09-26T06:26:09.202Z,98392.53
2022-09-26T06:27:15.304Z,98400.94
2022-09-26T06:28:18.876Z,98404.47
2022-09-26T06:29:22.524Z,98397.31
2022-09-26T06:30:27.221Z,98363.09
2022-09-26T06:31:31.147Z,98406.13
2022-09-26T06:32:36.665Z,98380.75
2022-09-26T06:33:41.630Z,98404.47
2022-09-26T06:34:46.655Z,98378.75
2022-09-26T06:36:07.047Z,98398.13
2022-09-26T06:37:10.603Z,98388.16
2022-09-26T06:38:17.303Z,98394.75
2022-09-26T06:39:34.604Z,98393.63
2022-09-26T06:40:38.663Z,98398.69
2022-09-26T06:41:42.624Z,98359.16
2022-09-26T06:42:46.819Z,98382.00
2022-09-26T06:43:50.713Z,98358.31
2022-09-26T06:44:55.013Z,98374.28
2022-09-26T06:45:59.735Z,98399.91
2022-09-26T06:47:13.794Z,98375.38
2022-09-26T06:48:24.522Z,98385.47
2022-09-26T06:49:29.259Z,98372.72
2022-09-26T06:50:33.545Z,98386.97
2022-09-26T06:51:38.654Z,98392.44
2022-09-26T06:52:44.221Z,98378.88
2022-09-26T07:06:00.178Z,98353.88
2022-09-26T07:07:04.974Z,98331.91
2022-09-26T07:08:09.517Z,98353.03
2022-09-26T07:09:13.175Z,98394.75
2022-09-26T07:10:19.871Z,98383.69
2022-09-26T07:11:38.094Z,98376.53
2022-09-26T07:12:49.772Z,98393.03
2022-09-26T07:13:53.433Z,98392.41
2022-09-26T07:14:59.817Z,98371.28
2022-09-26T07:16:03.561Z,98385.81
2022-09-26T07:17:08.238Z,98370.81
2022-09-26T07:18:12.064Z,98369.97
2022-09-26T07:19:17.313Z,98368.56
2022-09-26T07:20:21.318Z,98380.16
2022-09-26T07:21:25.125Z,98378.47
2022-09-26T07:22:29.533Z,98388.25
2022-09-26T07:23:33.875Z,98387.28
2022-09-26T07:24:37.488Z,98374.78
2022-09-26T07:25:44.972Z,98381.50
2022-09-26T07:26:48.955Z,98388.38
2022-09-26T07:28:01.477Z,98386.41
2022-09-26T07:29:17.054Z,98386.09
2022-09-26T07:30:21.238Z,98383.28
2022-09-26T07:31:24.947Z,98343.19
2022-09-26T07:32:31.271Z,98365.59
2022-09-26T07:33:34.936Z,98377.78
2022-09-26T07:34:38.878Z,98382.53
2022-09-26T07:35:44.484Z,98375.63
2022-09-26T07:36:48.146Z,98378.38
2022-09-26T07:37:53.066Z,98390.84
2022-09-26T07:38:57.015Z,98385.72
2022-09-26T07:40:01.748Z,98389.47
2022-09-26T07:41:06.180Z,98390.53
2022-09-26T07:42:14.618Z,98385.38
2022-09-26T07:43:20.527Z,98376.69
2022-09-26T07:45:20.598Z,98382.16
2022-09-26T07:46:12.429Z,98386.03
2022-09-26T07:47:36.128Z,98383.06
2022-09-26T07:48:58.773Z,98382.53
2022-09-26T07:50:13.332Z,98372.47
2022-09-26T07:51:16.917Z,98371.09
2022-09-26T07:52:22.634Z,98374.13
2022-09-26T07:53:27.475Z,98386.38
2022-09-26T07:54:31.062Z,98387.22
2022-09-26T07:55:54.744Z,98381.03
2022-09-26T07:56:58.625Z,98379.69
2022-09-26T07:58:02.072Z,98358.59
2022-09-26T07:59:06.067Z,98369.00
2022-09-26T08:00:14.829Z,98377.06
2022-09-26T08:01:18.532Z,98360.53
2022-09-26T08:02:30.617Z,98357.84
2022-09-26T08:03:35.126Z,98380.34
2022-09-26T08:04:39.142Z,98376.00
2022-09-26T08:05:42.791Z,98377.50
2022-09-26T08:06:47.143Z,98376.16
2022-09-26T08:07:51.518Z,98386.34
2022-09-26T08:08:56.088Z,98363.09
2022-09-26T08:10:02.066Z,98377.28
2022-09-26T08:11:12.747Z,98384.31
2022-09-26T08:12:18.864Z,98378.06
2022-09-26T08:13:22.809Z,98377.06
2022-09-26T08:14:26.360Z,98368.88
2022-09-26T08:15:29.908Z,98383.13
2022-09-26T08:16:33.444Z,98360.31
2022-09-26T08:17:38.429Z,98380.44
2022-09-26T08:18:41.819Z,98349.25
2022-09-26T08:19:45.870Z,98364.66
2022-09-26T08:20:49.652Z,98372.38
2022-09-26T08:21:53.233Z,98384.75
2022-09-26T08:22:57.248Z,98372.84
2022-09-26T08:24:02.519Z,98375.97
2022-09-26T08:25:07.356Z,98362.56
2022-09-26T08:26:11.097Z,98358.81
2022-09-26T08:27:15.093Z,98386.16
2022-09-26T08:28:19.122Z,98369.88
2022-09-26T08:29:24.047Z,98378.81
2022-09-26T08:30:27.743Z,98379.81
2022-09-26T08:31:31.587Z,98379.97
2022-09-26T08:32:35.246Z,98382.31
2022-09-26T08:33:40.367Z,98374.47
2022-09-26T08:34:45.387Z,98378.63
2022-09-26T08:35:51.947Z,98374.47
2022-09-26T08:36:55.443Z,98356.97
2022-09-26T08:38:03.253Z,98344.56
2022-09-26T08:39:07.679Z,98341.66
2022-09-26T08:40:15.077Z,98378.28
2022-09-26T08:41:55.940Z,98363.03
2022-09-26T08:43:31.460Z,98382.09
2022-09-26T08:45:30.337Z,98375.25
2022-09-26T08:47:02.884Z,98375.84
2022-09-26T08:48:53.672Z,98373.63
2022-09-26T08:50:37.570Z,98382.97
2022-09-26T08:51:48.201Z,98361.97
2022-09-26T08:53:01.569Z,98379.75
2022-09-26T08:54:13.567Z,98345.25
2022-09-26T08:55:25.751Z,98357.25
2022-09-26T08:56:44.254Z,98384.41
2022-09-26T08:58:00.755Z,98363.97
2022-09-26T08:59:14.291Z,98374.34
2022-09-26T09:00:26.824Z,98378.69
2022-09-26T09:01:37.995Z,98383.34
2022-09-26T09:03:00.507Z,98383.34
2022-09-26T09:04:36.351Z,98344.59
2022-09-26T09:05:46.800Z,98380.00
2022-09-26T09:07:06.744Z,98389.31
2022-09-26T09:08:39.902Z,98380.44
2022-09-26T09:09:43.442Z,98379.09
2022-09-26T09:11:10.584Z,98379.78
2022-09-26T09:12:24.312Z,98380.94
2022-09-26T09:13:40.200Z,98384.94
2022-09-26T09:15:25.331Z,98379.78
2022-09-26T09:16:58.599Z,98382.00
2022-09-26T09:18:30.519Z,98378.63
2022-09-26T09:20:43.248Z,98383.97
2022-09-26T09:22:15.053Z,98384.94
2022-09-26T09:24:13.148Z,98390.13
2022-09-26T09:25:55.692Z,98382.97
2022-09-26T09:29:49.393Z,98383.34
2022-09-26T09:31:09.896Z,98378.63
2022-09-26T09:32:21.160Z,98377.31
2022-09-26T09:33:37.704Z,98387.53
2022-09-26T09:34:50.117Z,98382.50
2022-09-26T09:36:11.147Z,98384.72
2022-09-26T09:37:24.351Z,98389.09
2022-09-26T09:38:32.138Z,98384.41
2022-09-26T09:39:44.793Z,98382.34
2022-09-26T09:41:02.982Z,98383.06
2022-09-26T09:42:24.765Z,98393.94
2022-09-26T09:43:47.615Z,98387.63
2022-09-26T09:45:05.610Z,98383.97
2022-09-26T09:46:37.959Z,98386.31
2022-09-26T09:47:41.982Z,98386.31
2022-09-26T09:48:48.597Z,98385.47
2022-09-26T09:49:52.940Z,98385.47
2022-09-26T09:52:02.545Z,98387.00
2022-09-26T09:53:25.465Z,98382.53
2022-09-26T09:55:16.339Z,98384.31
2022-09-26T09:56:56.689Z,98383.19
2022-09-26T09:58:07.210Z,98386.03
2022-09-26T09:59:29.158Z,98386.03
2022-09-26T10:00:41.963Z,98387.69
2022-09-26T10:02:00.207Z,98392.03
2022-09-26T10:03:51.666Z,98386.53
2022-09-26T10:05:19.782Z,98386.22
2022-09-26T10:06:45.594Z,98381.03
2022-09-26T10:07:58.127Z,98385.09
2022-09-26T10:09:36.092Z,98383.25
2022-09-26T10:10:55.300Z,98366.84
2022-09-26T10:12:00.145Z,98383.63
2022-09-26T10:13:06.260Z,98384.47
2022-09-26T10:14:28.701Z,98379.13
2022-09-26T10:15:36.477Z,98386.16
2022-09-26T10:17:10.627Z,98385.31
2022-09-26T10:18:25.797Z,98382.47
2022-09-26T10:19:43.524Z,98367.28
2022-09-26T10:21:28.320Z,98372.47
2022-09-26T10:22:45.135Z,98359.41
2022-09-26T10:23:52.124Z,98355.69
2022-09-26T10:25:16.025Z,98371.78
2022-09-26T10:26:34.694Z,98373.78
2022-09-26T10:27:50.685Z,98366.22
2022-09-26T10:29:00.007Z,98351.63
2022-09-26T10:30:32.101Z,98367.28
2022-09-26T10:31:42.658Z,98373.47
2022-09-26T10:32:55.484Z,98364.09
2022-09-26T10:34:21.783Z,98363.59
2022-09-26T10:35:40.110Z,98360.63
2022-09-26T10:36:43.708Z,98343.16
2022-09-26T10:38:06.122Z,98363.81
2022-09-26T10:39:44.118Z,98362.31
2022-09-26T10:40:59.782Z,98350.47
2022-09-26T10:42:15.084Z,98360.38
2022-09-26T10:43:28.875Z,98345.31
2022-09-26T10:44:35.229Z,98355.91
2022-09-26T10:45:39.219Z,98346.22
2022-09-26T10:46:46.734Z,98349.91
2022-09-26T10:47:52.077Z,98347.78
2022-09-26T10:49:02.198Z,98346.63
2022-09-26T10:50:14.822Z,98346.28
2022-09-26T10:51:24.517Z,98341.34
2022-09-26T10:52:34.814Z,98336.38
2022-09-26T10:53:41.437Z,98345.91
2022-09-26T10:54:57.327Z,98317.28
2022-09-26T10:56:11.339Z,98336.41
2022-09-26T10:57:25.258Z,98328.88
2022-09-26T10:58:30.011Z,98327.19
2022-09-26T10:59:40.028Z,98331.25
2022-09-26T11:00:49.596Z,98328.41
2022-09-26T11:01:57.258Z,98332.59
2022-09-26T11:03:01.295Z,98341.31
2022-09-26T11:04:42.129Z,98314.19
2022-09-26T11:05:57.421Z,98336.00
2022-09-26T11:07:02.026Z,98321.94
2022-09-26T11:08:10.394Z,98315.88
2022-09-26T11:09:20.771Z,98331.31
2022-09-26T11:10:32.563Z,98325.97
2022-09-26T11:11:40.329Z,98321.78
2022-09-26T11:13:00.231Z,98333.03
2022-09-26T11:14:10.715Z,98337.06
2022-09-26T11:15:15.266Z,98328.72
2022-09-26T11:16:22.190Z,98337.25
2022-09-26T11:17:48.170Z,98330.56
2022-09-26T11:19:01.593Z,98325.34
2022-09-26T11:20:09.737Z,98327.56
2022-09-26T11:21:56.210Z,98328.41
2022-09-26T11:23:18.017Z,98325.25
2022-09-26T11:24:54.951Z,98322.03
2022-09-26T11:26:19.078Z,98318.88
2022-09-26T11:27:47.182Z,98327.44
2022-09-26T11:29:04.413Z,98320.25
2022-09-26T11:30:20.974Z,98323.09
2022-09-26T11:31:30.338Z,98329.81
2022-09-26T11:32:41.171Z,98318.59
2022-09-26T11:33:45.346Z,98317.25
2022-09-26T11:34:48.995Z,98310.38
2022-09-26T11:36:18.216Z,98309.53
2022-09-26T11:37:45.779Z,98303.69
2022-09-26T11:38:58.023Z,98296.97
2022-09-26T11:40:46.293Z,98292.94
2022-09-26T11:42:15.561Z,98291.75
2022-09-26T11:43:53.477Z,98298.63
2022-09-26T11:45:01.406Z,98289.88
2022-09-26T11:46:55.967Z,98291.53
2022-09-26T11:48:46.622Z,98285.31
2022-09-26T11:50:25.587Z,98284.94
2022-09-26T11:51:50.976Z,98279.03
2022-09-26T11:53:36.584Z,98276.69
2022-09-26T11:55:04.829Z,98286.56
2022-09-26T11:56:32.437Z,98273.47
2022-09-26T11:57:51.000Z,98279.81
2022-09-26T11:59:27.914Z,98273.91
2022-09-26T12:01:03.269Z,98266.16
2022-09-26T12:02:40.523Z,98280.88
2022-09-26T12:04:08.503Z,98281.53
2022-09-26T12:06:01.927Z,98281.28
2022-09-26T12:07:53.425Z,98281.41
2022-09-26T12:09:38.654Z,98276.66
2022-09-26T12:11:01.380Z,98281.97
2022-09-26T12:12:41.489Z,98283.25
2022-09-26T12:13:59.704Z,98277.00
2022-09-26T12:15:56.233Z,98279.16
2022-09-26T12:17:36.225Z,98266.44
2022-09-26T12:19:10.406Z,98278.47
2022-09-26T12:20:47.218Z,98279.94
2022-09-26T12:22:29.759Z,98282.81
2022-09-26T12:23:45.703Z,98276.41
2022-09-26T12:25:11.498Z,98276.59
2022-09-26T12:26:29.857Z,98267.75
2022-09-26T12:28:12.500Z,98281.69
2022-09-26T12:30:01.683Z,98282.03
2022-09-26T12:31:26.355Z,98253.13
2022-09-26T12:32:52.990Z,98275.69
2022-09-26T12:34:39.428Z,98278.56
2022-09-26T12:36:06.231Z,98259.34
2022-09-26T12:37:33.875Z,98277.88
2022-09-26T12:39:19.037Z,98274.38
2022-09-26T12:40:31.908Z,98274.38
2022-09-26T12:42:00.939Z,98268.81
2022-09-26T12:43:52.147Z,98253.25
2022-09-26T12:45:28.321Z,98266.44
2022-09-26T12:47:33.262Z,98257.72
2022-09-26T12:49:20.585Z,98258.84
2022-09-26T12:51:04.063Z,98250.78
2022-09-26T12:52:46.071Z,98242.25
2022-09-26T12:54:33.787Z,98258.81
2022-09-26T12:56:07.195Z,98252.75
2022-09-26T12:57:38.652Z,98259.84
2022-09-26T12:59:18.284Z,98260.66
2022-09-26T13:00:23.334Z,98264.38
2022-09-26T13:02:03.900Z,98255.97
2022-09-26T13:03:43.081Z,98259.00
2022-09-26T13:05:31.864Z,98264.38
2022-09-26T13:07:17.158Z,98265.03
2022-09-26T13:08:40.400Z,98258.13
2022-09-26T13:10:15.468Z,98260.19
2022-09-26T13:12:00.429Z,98267.56
2022-09-26T13:13:32.711Z,98271.28
2022-09-26T13:15:32.556Z,98269.59
2022-09-26T13:17:15.738Z,98267.06
2022-09-26T13:18:35.148Z,98254.09
2022-09-26T13:19:52.047Z,98266.63
2022-09-26T13:21:05.555Z,98263.28
2022-09-26T13:22:35.316Z,98259.75
2022-09-26T13:23:52.597Z,98258.06
2022-09-26T13:25:11.991Z,98254.72
2022-09-26T13:26:31.002Z,98244.69
2022-09-26T13:28:15.988Z,98259.25
2022-09-26T13:29:37.508Z,98233.38
2022-09-26T13:30:50.181Z,98247.03
2022-09-26T13:32:18.454Z,98254.09
2022-09-26T13:34:16.446Z,98251.22
2022-09-26T13:35:27.759Z,98237.00
2022-09-26T13:36:35.352Z,98255.75
2022-09-26T13:37:47.908Z,98246.66
2022-09-26T13:39:18.239Z,98246.31
2022-09-26T13:40:39.436Z,98248.44
2022-09-26T13:42:17.577Z,98232.63
2022-09-26T13:43:47.808Z,98242.50
2022-09-26T13:45:29.560Z,98236.41
2022-09-26T13:47:15.177Z,98240.22
2022-09-26T13:48:38.578Z,98215.72
2022-09-26T13:49:52.035Z,98234.94
2022-09-26T13:51:41.976Z,98239.13
2022-09-26T13:53:04.540Z,98223.81
2022-09-26T13:54:55.768Z,98230.03
2022-09-26T13:56:44.504Z,98221.78
2022-09-26T13:58:09.307Z,98191.84
2022-09-26T13:59:12.779Z,98218.91
2022-09-26T14:00:25.362Z,98212.69
2022-09-26T14:01:36.700Z,98200.34
2022-09-26T14:02:43.012Z,98180.97
2022-09-26T14:03:47.272Z,98207.31
2022-09-26T14:05:03.347Z,98214.53
2022-09-26T14:06:24.703Z,98196.44
2022-09-26T14:07:58.864Z,98207.16
2022-09-26T14:09:24.233Z,98188.13
2022-09-26T14:10:27.899Z,98192.56
2022-09-26T14:11:51.638Z,98203.16
2022-09-26T14:13:08.555Z,98211.31
2022-09-26T14:14:18.358Z,98196.84
2022-09-26T14:15:28.503Z,98206.56
2022-09-26T14:16:34.963Z,98209.44
2022-09-26T14:17:44.292Z,98205.94
2022-09-26T14:19:04.381Z,98183.38
2022-09-26T14:20:27.409Z,98197.97
2022-09-26T14:21:33.946Z,98199.63
2022-09-26T14:22:52.768Z,98199.34
2022-09-26T14:24:20.894Z,98199.53
2022-09-26T14:25:46.383Z,98202.75
2022-09-26T14:27:25.763Z,98200.44
2022-09-26T14:28:35.768Z,98181.75
2022-09-26T14:29:39.414Z,98206.19
2022-09-26T14:31:24.460Z,98205.72
2022-09-26T14:32:36.142Z,98198.03
2022-09-26T14:33:40.750Z,98203.75
2022-09-26T14:34:56.991Z,98205.59
2022-09-26T14:36:33.553Z,98205.94
2022-09-26T14:37:43.639Z,98212.50
2022-09-26T14:38:50.553Z,98198.13
2022-09-26T14:40:00.487Z,98205.19
2022-09-26T14:41:05.892Z,98175.47
2022-09-26T14:42:27.484Z,98189.00
2022-09-26T14:43:32.106Z,98203.56
2022-09-26T14:44:37.434Z,98195.88
2022-09-26T14:46:02.994Z,98205.13
2022-09-26T14:47:16.440Z,98204.47
2022-09-26T14:48:36.879Z,98205.88
2022-09-26T14:49:40.968Z,98186.25
2022-09-26T14:50:54.095Z,98189.97
2022-09-26T14:52:08.904Z,98194.50
2022-09-26T14:53:47.161Z,98201.38
2022-09-26T14:55:01.310Z,98182.69
2022-09-26T14:56:16.995Z,98202.94
2022-09-26T14:57:32.542Z,98203.13